sensor_id;sensor_type;location;lat;lon;timestamp;pressure;altitude;pressure_sealevel;temperature;humidity
36600;BME280;35385;55.668;37.508;2023-02-16T00:00:46;100180.91;;;-2.40;100.00
36600;BME280;35385;55.668;37.508;2023-02-16T00:01:46;100139.44;;;-2.58;100.00
36600;BME280;35385;55.668;37.508;2023-02-16T00:02:47;100177.16;;;-2.28;100.00
36600;BME280;35385;55.668;37.508;2023-02-16T00:03:49;100163.19;;;-2.27;100.00
36600;BME280;35385;55.668;37.508;2023-02-16T00:04:50;100160.50;;;-2.24;100.00
36600;BME280;35385;55.668;37.508;2023-02-16T00:05:50;100174.25;;;-2.16;100.00
36600;BME280;35385;55.668;37.508;2023-02-16T00:06:53;100169.94;;;-2.17;100.00
36600;BME280;35385;55.668;37.508;2023-02-16T00:07:54;100059.84;;;-2.85;100.00
36600;BME280;35385;55.668;37.508;2023-02-16T00:08:55;100167.53;;;-2.28;100.00
36600;BME280;35385;55.668;37.508;2023-02-16T00:09:56;100161.38;;;-2.25;100.00
36600;BME280;35385;55.668;37.508;2023-02-16T00:10:56;100170.13;;;-2.26;100.00
36600;BME280;35385;55.668;37.508;2023-02-16T00:12:18;100169.94;;;-2.17;100.00
36600;BME280;35385;55.668;37.508;2023-02-16T00:13:39;100175.25;;;-2.20;100.00
36600;BME280;35385;55.668;37.508;2023-02-16T00:14:52;100175.94;;;-2.14;100.00
36600;BME280;35385;55.668;37.508;2023-02-16T00:15:52;100166.41;;;-2.16;100.00
36600;BME280;35385;55.668;37.508;2023-02-16T00:16:54;100173.78;;;-2.33;100.00
36600;BME280;35385;55.668;37.508;2023-02-16T00:17:57;100168.63;;;-2.36;100.00
36600;BME280;35385;55.668;37.508;2023-02-16T00:18:59;100109.91;;;-2.62;100.00
36600;BME280;35385;55.668;37.508;2023-02-16T00:19:59;100167.47;;;-2.23;100.00
36600;BME280;35385;55.668;37.508;2023-02-16T00:21:00;100171.94;;;-2.30;100.00
36600;BME280;35385;55.668;37.508;2023-02-16T00:22:01;100114.31;;;-2.65;100.00
36600;BME280;35385;55.668;37.508;2023-02-16T00:23:02;100175.44;;;-2.29;100.00
36600;BME280;35385;55.668;37.508;2023-02-16T00:24:03;100173.59;;;-2.24;100.00
36600;BME280;35385;55.668;37.508;2023-02-16T00:25:04;100171.75;;;-2.21;100.00
36600;BME280;35385;55.668;37.508;2023-02-16T00:26:08;100127.91;;;-2.48;100.00
36600;BME280;35385;55.668;37.508;2023-02-16T00:27:14;100174.38;;;-2.21;100.00
36600;BME280;35385;55.668;37.508;2023-02-16T00:28:18;100174.44;;;-2.24;100.00
36600;BME280;35385;55.668;37.508;2023-02-16T00:29:28;100164.91;;;-2.26;100.00
36600;BME280;35385;55.668;37.508;2023-02-16T00:30:30;100103.09;;;-2.70;100.00
36600;BME280;35385;55.668;37.508;2023-02-16T00:31:30;100167.56;;;-2.29;100.00
36600;BME280;35385;55.668;37.508;2023-02-16T00:32:31;100108.03;;;-2.57;100.00
36600;BME280;35385;55.668;37.508;2023-02-16T00:33:31;100104.63;;;-2.60;100.00
36600;BME280;35385;55.668;37.508;2023-02-16T00:34:37;100166.69;;;-2.28;100.00
36600;BME280;35385;55.668;37.508;2023-02-16T00:35:38;100158.44;;;-2.48;100.00
36600;BME280;35385;55.668;37.508;2023-02-16T00:36:38;100170.47;;;-2.41;100.00
36600;BME280;35385;55.668;37.508;2023-02-16T00:37:39;100111.94;;;-2.76;100.00
36600;BME280;35385;55.668;37.508;2023-02-16T00:38:39;100168.63;;;-2.36;100.00
36600;BME280;35385;55.668;37.508;2023-02-16T00:39:42;100162.75;;;-2.46;100.00
36600;BME280;35385;55.668;37.508;2023-02-16T00:40:42;100159.13;;;-2.82;100.00
36600;BME280;35385;55.668;37.508;2023-02-16T00:41:43;100166.69;;;-2.68;100.00
36600;BME280;35385;55.668;37.508;2023-02-16T00:42:49;100162.91;;;-2.55;100.00
36600;BME280;35385;55.668;37.508;2023-02-16T00:43:50;100145.53;;;-2.58;100.00
36600;BME280;35385;55.668;37.508;2023-02-16T00:44:52;100157.63;;;-2.52;100.00
36600;BME280;35385;55.668;37.508;2023-02-16T00:45:54;100174.81;;;-2.40;100.00
36600;BME280;35385;55.668;37.508;2023-02-16T00:46:54;100039.47;;;-3.09;100.00
36600;BME280;35385;55.668;37.508;2023-02-16T00:47:55;100165.91;;;-2.32;100.00
36600;BME280;35385;55.668;37.508;2023-02-16T00:48:56;100154.66;;;-2.35;100.00
36600;BME280;35385;55.668;37.508;2023-02-16T00:49:57;100144.34;;;-2.43;100.00
36600;BME280;35385;55.668;37.508;2023-02-16T00:50:57;100160.00;;;-2.41;100.00
36600;BME280;35385;55.668;37.508;2023-02-16T00:51:58;100158.41;;;-2.47;100.00
36600;BME280;35385;55.668;37.508;2023-02-16T00:52:59;100153.28;;;-2.53;100.00
36600;BME280;35385;55.668;37.508;2023-02-16T00:54:01;100143.75;;;-2.56;100.00
36600;BME280;35385;55.668;37.508;2023-02-16T00:56:17;100147.13;;;-2.51;100.00
36600;BME280;35385;55.668;37.508;2023-02-16T00:57:19;100163.25;;;-2.30;100.00
36600;BME280;35385;55.668;37.508;2023-02-16T00:59:21;100162.47;;;-2.34;100.00
36600;BME280;35385;55.668;37.508;2023-02-16T01:00:46;100160.50;;;-2.24;100.00
36600;BME280;35385;55.668;37.508;2023-02-16T01:01:48;100164.09;;;-2.30;100.00
36600;BME280;35385;55.668;37.508;2023-02-16T01:02:51;100163.13;;;-2.24;100.00
36600;BME280;35385;55.668;37.508;2023-02-16T01:03:52;100161.38;;;-2.25;100.00
36600;BME280;35385;55.668;37.508;2023-02-16T01:04:53;100157.94;;;-2.27;100.00
36600;BME280;35385;55.668;37.508;2023-02-16T01:05:54;100169.19;;;-2.22;100.00
36600;BME280;35385;55.668;37.508;2023-02-16T01:07:15;100151.25;;;-2.40;100.00
36600;BME280;35385;55.668;37.508;2023-02-16T01:08:36;100155.56;;;-2.38;100.00
36600;BME280;35385;55.668;37.508;2023-02-16T01:09:55;100151.31;;;-2.43;100.00
36600;BME280;35385;55.668;37.508;2023-02-16T01:11:14;100159.03;;;-2.36;100.00
36600;BME280;35385;55.668;37.508;2023-02-16T01:12:17;100153.91;;;-2.42;100.00
36600;BME280;35385;55.668;37.508;2023-02-16T01:13:19;100162.50;;;-2.35;100.00
36600;BME280;35385;55.668;37.508;2023-02-16T01:14:19;100154.72;;;-2.38;100.00
36600;BME280;35385;55.668;37.508;2023-02-16T01:15:23;100168.53;;;-2.32;100.00
36600;BME280;35385;55.668;37.508;2023-02-16T01:16:32;100169.50;;;-2.36;100.00
36600;BME280;35385;55.668;37.508;2023-02-16T01:17:34;100167.88;;;-2.43;100.00
36600;BME280;35385;55.668;37.508;2023-02-16T01:18:35;100161.94;;;-2.50;100.00
36600;BME280;35385;55.668;37.508;2023-02-16T01:19:35;100107.03;;;-2.91;100.00
36600;BME280;35385;55.668;37.508;2023-02-16T01:20:36;100150.88;;;-2.62;100.00
36600;BME280;35385;55.668;37.508;2023-02-16T01:21:36;100182.94;;;-2.53;100.00
36600;BME280;35385;55.668;37.508;2023-02-16T01:22:37;100175.06;;;-2.51;100.00
36600;BME280;35385;55.668;37.508;2023-02-16T01:23:38;100172.50;;;-2.54;100.00
36600;BME280;35385;55.668;37.508;2023-02-16T01:24:39;100171.69;;;-2.58;100.00
36600;BME280;35385;55.668;37.508;2023-02-16T01:25:39;100173.41;;;-2.57;100.00
36600;BME280;35385;55.668;37.508;2023-02-16T01:26:45;100169.84;;;-2.53;100.00
36600;BME280;35385;55.668;37.508;2023-02-16T01:27:47;100173.31;;;-2.52;100.00
36600;BME280;35385;55.668;37.508;2023-02-16T01:28:48;100167.03;;;-2.43;100.00
36600;BME280;35385;55.668;37.508;2023-02-16T01:29:49;100117.00;;;-2.68;100.00
36600;BME280;35385;55.668;37.508;2023-02-16T01:30:50;100151.47;;;-2.50;100.00
36600;BME280;35385;55.668;37.508;2023-02-16T01:31:51;100170.50;;;-2.43;100.00
36600;BME280;35385;55.668;37.508;2023-02-16T01:32:51;100160.00;;;-2.41;100.00
36600;BME280;35385;55.668;37.508;2023-02-16T01:33:52;100154.84;;;-2.44;100.00
36600;BME280;35385;55.668;37.508;2023-02-16T01:34:53;100166.00;;;-2.36;100.00
36600;BME280;35385;55.668;37.508;2023-02-16T01:35:55;100168.53;;;-2.32;100.00
36600;BME280;35385;55.668;37.508;2023-02-16T01:36:56;100176.41;;;-2.33;100.00
36600;BME280;35385;55.668;37.508;2023-02-16T01:37:56;100155.63;;;-2.41;100.00
36600;BME280;35385;55.668;37.508;2023-02-16T01:38:57;100162.81;;;-2.49;100.00
36600;BME280;35385;55.668;37.508;2023-02-16T01:39:58;100103.97;;;-2.70;100.00
36600;BME280;35385;55.668;37.508;2023-02-16T01:42:34;100180.91;;;-2.40;100.00
36600;BME280;35385;55.668;37.508;2023-02-16T01:43:58;100105.06;;;-2.80;100.00
36600;BME280;35385;55.668;37.508;2023-02-16T01:45:04;100158.44;;;-2.48;100.00
36600;BME280;35385;55.668;37.508;2023-02-16T01:46:13;100155.00;;;-2.51;100.00
36600;BME280;35385;55.668;37.508;2023-02-16T01:47:51;100158.44;;;-2.48;100.00
36600;BME280;35385;55.668;37.508;2023-02-16T01:48:52;100167.97;;;-2.46;100.00
36600;BME280;35385;55.668;37.508;2023-02-16T01:49:53;100167.13;;;-2.46;100.00
36600;BME280;35385;55.668;37.508;2023-02-16T01:51:11;100169.75;;;-2.48;100.00
36600;BME280;35385;55.668;37.508;2023-02-16T01:52:36;100183.53;;;-2.40;100.00
36600;BME280;35385;55.668;37.508;2023-02-16T01:54:06;100176.91;;;-2.56;100.00
36600;BME280;35385;55.668;37.508;2023-02-16T01:55:19;100179.47;;;-2.55;100.00
36600;BME280;35385;55.668;37.508;2023-02-16T01:56:33;100113.16;;;-2.92;100.00
36600;BME280;35385;55.668;37.508;2023-02-16T01:57:45;100110.66;;;-2.98;100.00
36600;BME280;35385;55.668;37.508;2023-02-16T01:58:53;100171.81;;;-2.62;100.00
36600;BME280;35385;55.668;37.508;2023-02-16T02:02:03;100171.56;;;-2.52;100.00
36600;BME280;35385;55.668;37.508;2023-02-16T02:03:09;100174.06;;;-2.45;100.00
36600;BME280;35385;55.668;37.508;2023-02-16T02:04:43;100176.56;;;-2.41;100.00
36600;BME280;35385;55.668;37.508;2023-02-16T02:06:08;100167.22;;;-2.51;100.00
36600;BME280;35385;55.668;37.508;2023-02-16T02:07:14;100172.47;;;-2.53;100.00
36600;BME280;35385;55.668;37.508;2023-02-16T02:09:54;100128.78;;;-2.89;100.00
36600;BME280;35385;55.668;37.508;2023-02-16T02:12:31;100185.88;;;-2.68;100.00
36600;BME280;35385;55.668;37.508;2023-02-16T02:13:44;100177.09;;;-2.65;100.00
36600;BME280;35385;55.668;37.508;2023-02-16T02:14:46;100180.53;;;-2.62;100.00
36600;BME280;35385;55.668;37.508;2023-02-16T02:15:48;100114.06;;;-2.93;100.00
36600;BME280;35385;55.668;37.508;2023-02-16T02:16:56;100176.91;;;-2.56;100.00
36600;BME280;35385;55.668;37.508;2023-02-16T02:17:57;100181.34;;;-2.60;100.00
36600;BME280;35385;55.668;37.508;2023-02-16T02:18:58;100183.13;;;-2.62;100.00
36600;BME280;35385;55.668;37.508;2023-02-16T02:23:17;100172.78;;;-2.68;100.00
36600;BME280;35385;55.668;37.508;2023-02-16T02:27:26;100184.97;;;-2.67;100.00
36600;BME280;35385;55.668;37.508;2023-02-16T02:33:20;100184.97;;;-2.67;100.00
36600;BME280;35385;55.668;37.508;2023-02-16T02:36:07;100132.28;;;-2.89;100.00
36600;BME280;35385;55.668;37.508;2023-02-16T02:37:28;100160.59;;;-2.69;100.00
36600;BME280;35385;55.668;37.508;2023-02-16T02:39:14;100104.69;;;-3.03;100.00
36600;BME280;35385;55.668;37.508;2023-02-16T02:40:33;100172.72;;;-2.65;100.00
36600;BME280;35385;55.668;37.508;2023-02-16T02:41:44;100181.41;;;-2.63;100.00
36600;BME280;35385;55.668;37.508;2023-02-16T02:43:20;100170.88;;;-2.60;100.00
36600;BME280;35385;55.668;37.508;2023-02-16T02:44:23;100155.81;;;-2.90;100.00
36600;BME280;35385;55.668;37.508;2023-02-16T02:45:31;100174.72;;;-2.76;100.00
36600;BME280;35385;55.668;37.508;2023-02-16T02:46:34;100175.47;;;-2.71;100.00
36600;BME280;35385;55.668;37.508;2023-02-16T02:47:41;100178.84;;;-2.66;100.00
36600;BME280;35385;55.668;37.508;2023-02-16T02:48:42;100161.53;;;-2.71;100.00
36600;BME280;35385;55.668;37.508;2023-02-16T02:49:53;100168.44;;;-2.69;100.00
36600;BME280;35385;55.668;37.508;2023-02-16T02:52:28;100175.63;;;-2.78;100.00
36600;BME280;35385;55.668;37.508;2023-02-16T02:53:28;100172.13;;;-2.77;100.00
36600;BME280;35385;55.668;37.508;2023-02-16T02:54:33;100180.56;;;-2.65;100.00
36600;BME280;35385;55.668;37.508;2023-02-16T02:55:52;100175.31;;;-2.63;100.00
36600;BME280;35385;55.668;37.508;2023-02-16T02:57:23;100190.97;;;-2.62;100.00
36600;BME280;35385;55.668;37.508;2023-02-16T02:58:46;100164.25;;;-2.76;100.00
36600;BME280;35385;55.668;37.508;2023-02-16T03:00:15;100187.41;;;-2.59;100.00
36600;BME280;35385;55.668;37.508;2023-02-16T03:01:39;100196.19;;;-2.60;100.00
36600;BME280;35385;55.668;37.508;2023-02-16T03:02:42;100175.50;;;-2.72;100.00
36600;BME280;35385;55.668;37.508;2023-02-16T03:03:48;100188.41;;;-2.65;100.00
36600;BME280;35385;55.668;37.508;2023-02-16T03:04:52;100176.28;;;-2.69;100.00
36600;BME280;35385;55.668;37.508;2023-02-16T03:06:00;100184.28;;;-2.75;100.00
36600;BME280;35385;55.668;37.508;2023-02-16T03:07:04;100187.91;;;-2.83;100.00
36600;BME280;35385;55.668;37.508;2023-02-16T03:08:10;100182.03;;;-2.93;100.00
36600;BME280;35385;55.668;37.508;2023-02-16T03:09:15;100192.25;;;-2.81;100.00
36600;BME280;35385;55.668;37.508;2023-02-16T03:10:26;100188.72;;;-2.78;100.00
36600;BME280;35385;55.668;37.508;2023-02-16T03:11:48;100183.44;;;-2.77;100.00
36600;BME280;35385;55.668;37.508;2023-02-16T03:13:17;100190.41;;;-2.76;100.00
36600;BME280;35385;55.668;37.508;2023-02-16T03:15:33;100186.03;;;-2.75;100.00
36600;BME280;35385;55.668;37.508;2023-02-16T03:16:48;100180.91;;;-2.81;100.00
36600;BME280;35385;55.668;37.508;2023-02-16T03:17:51;100181.78;;;-2.81;100.00
36600;BME280;35385;55.668;37.508;2023-02-16T03:19:14;100184.38;;;-2.81;100.00
36600;BME280;35385;55.668;37.508;2023-02-16T03:20:34;100124.88;;;-3.11;100.00
36600;BME280;35385;55.668;37.508;2023-02-16T03:21:54;100112.88;;;-3.22;100.00
36600;BME280;35385;55.668;37.508;2023-02-16T03:23:14;100075.88;;;-3.45;100.00
36600;BME280;35385;55.668;37.508;2023-02-16T03:24:33;100170.63;;;-2.89;100.00
36600;BME280;35385;55.668;37.508;2023-02-16T03:25:53;100170.53;;;-2.86;100.00
36600;BME280;35385;55.668;37.508;2023-02-16T03:27:17;100154.25;;;-2.99;100.00
36600;BME280;35385;55.668;37.508;2023-02-16T03:28:41;100051.72;;;-3.56;100.00
36600;BME280;35385;55.668;37.508;2023-02-16T03:30:02;100172.41;;;-2.91;100.00
36600;BME280;35385;55.668;37.508;2023-02-16T03:31:05;100152.56;;;-3.03;100.00
36600;BME280;35385;55.668;37.508;2023-02-16T03:32:07;100165.56;;;-2.98;100.00
36600;BME280;35385;55.668;37.508;2023-02-16T03:33:08;100105.34;;;-3.37;100.00
36600;BME280;35385;55.668;37.508;2023-02-16T03:34:09;100157.75;;;-3.00;100.00
36600;BME280;35385;55.668;37.508;2023-02-16T03:35:10;100160.97;;;-2.87;100.00
36600;BME280;35385;55.668;37.508;2023-02-16T03:36:12;100147.25;;;-2.98;100.00
36600;BME280;35385;55.668;37.508;2023-02-16T03:37:13;100158.66;;;-3.02;100.00
36600;BME280;35385;55.668;37.508;2023-02-16T03:38:14;100168.31;;;-3.04;100.00
36600;BME280;35385;55.668;37.508;2023-02-16T03:39:16;100098.38;;;-3.36;100.00
36600;BME280;35385;55.668;37.508;2023-02-16T03:40:16;100170.75;;;-2.97;100.00
36600;BME280;35385;55.668;37.508;2023-02-16T03:41:38;100162.09;;;-2.99;100.00
36600;BME280;35385;55.668;37.508;2023-02-16T03:42:38;100162.78;;;-2.89;100.00
36600;BME280;35385;55.668;37.508;2023-02-16T03:43:39;100166.28;;;-2.90;100.00
36600;BME280;35385;55.668;37.508;2023-02-16T03:44:39;100108.63;;;-3.27;100.00
36600;BME280;35385;55.668;37.508;2023-02-16T03:45:41;100174.19;;;-2.93;100.00
36600;BME280;35385;55.668;37.508;2023-02-16T03:46:43;100162.88;;;-2.95;100.00
36600;BME280;35385;55.668;37.508;2023-02-16T03:47:43;100168.97;;;-2.95;100.00
36600;BME280;35385;55.668;37.508;2023-02-16T03:48:44;100162.78;;;-2.89;100.00
36600;BME280;35385;55.668;37.508;2023-02-16T03:49:44;100124.22;;;-3.23;100.00
36600;BME280;35385;55.668;37.508;2023-02-16T03:50:45;100152.78;;;-3.13;100.00
36600;BME280;35385;55.668;37.508;2023-02-16T03:51:46;100166.59;;;-3.05;100.00
36600;BME280;35385;55.668;37.508;2023-02-16T03:52:46;100169.09;;;-3.01;100.00
36600;BME280;35385;55.668;37.508;2023-02-16T03:53:47;100111.41;;;-3.35;100.00
36600;BME280;35385;55.668;37.508;2023-02-16T03:54:49;100162.84;;;-2.92;100.00
36600;BME280;35385;55.668;37.508;2023-02-16T03:55:49;100166.28;;;-2.90;100.00
36600;BME280;35385;55.668;37.508;2023-02-16T03:56:50;100153.41;;;-3.01;100.00
36600;BME280;35385;55.668;37.508;2023-02-16T03:57:50;100099.88;;;-3.25;100.00
36600;BME280;35385;55.668;37.508;2023-02-16T03:58:51;100158.44;;;-2.90;100.00
36600;BME280;35385;55.668;37.508;2023-02-16T03:59:52;100116.34;;;-3.19;100.00
36600;BME280;35385;55.668;37.508;2023-02-16T04:00:53;100163.66;;;-2.90;100.00
36600;BME280;35385;55.668;37.508;2023-02-16T04:01:54;100156.78;;;-2.94;100.00
36600;BME280;35385;55.668;37.508;2023-02-16T04:02:54;100165.22;;;-2.81;100.00
36600;BME280;35385;55.668;37.508;2023-02-16T04:03:55;100160.19;;;-2.91;100.00
36600;BME280;35385;55.668;37.508;2023-02-16T04:04:56;99969.88;;;-4.00;100.00
36600;BME280;35385;55.668;37.508;2023-02-16T04:05:57;100149.81;;;-2.95;100.00
36600;BME280;35385;55.668;37.508;2023-02-16T04:06:58;100155.06;;;-2.97;100.00
36600;BME280;35385;55.668;37.508;2023-02-16T04:07:58;100166.34;;;-2.93;100.00
36600;BME280;35385;55.668;37.508;2023-02-16T04:08:59;100155.13;;;-3.00;100.00
36600;BME280;35385;55.668;37.508;2023-02-16T04:10:00;100157.88;;;-3.06;100.00
36600;BME280;35385;55.668;37.508;2023-02-16T04:11:00;100164.63;;;-2.96;100.00
36600;BME280;35385;55.668;37.508;2023-02-16T04:12:21;100158.59;;;-2.99;100.00
36600;BME280;35385;55.668;37.508;2023-02-16T04:13:36;100156.81;;;-2.97;100.00
36600;BME280;35385;55.668;37.508;2023-02-16T04:14:37;100161.22;;;-2.99;100.00
36600;BME280;35385;55.668;37.508;2023-02-16T04:15:37;100160.31;;;-2.97;100.00
36600;BME280;35385;55.668;37.508;2023-02-16T04:16:38;100093.91;;;-3.31;100.00
36600;BME280;35385;55.668;37.508;2023-02-16T04:17:39;100169.03;;;-2.98;100.00
36600;BME280;35385;55.668;37.508;2023-02-16T04:18:39;100170.69;;;-2.92;100.00
36600;BME280;35385;55.668;37.508;2023-02-16T04:19:40;100166.34;;;-2.93;100.00
36600;BME280;35385;55.668;37.508;2023-02-16T04:20:41;100164.63;;;-2.94;100.00
36600;BME280;35385;55.668;37.508;2023-02-16T04:21:42;100157.66;;;-2.95;100.00
36600;BME280;35385;55.668;37.508;2023-02-16T04:22:43;100101.66;;;-3.27;100.00
36600;BME280;35385;55.668;37.508;2023-02-16T04:23:44;100165.44;;;-2.92;100.00
36600;BME280;35385;55.668;37.508;2023-02-16T04:24:44;100144.78;;;-3.04;100.00
36600;BME280;35385;55.668;37.508;2023-02-16T04:25:45;100158.50;;;-2.93;100.00
36600;BME280;35385;55.668;37.508;2023-02-16T04:26:45;100163.63;;;-2.89;100.00
36600;BME280;35385;55.668;37.508;2023-02-16T04:27:49;100145.44;;;-2.93;100.00
36600;BME280;35385;55.668;37.508;2023-02-16T04:28:49;100146.25;;;-2.91;100.00
36600;BME280;35385;55.668;37.508;2023-02-16T04:29:50;100139.44;;;-3.00;100.00
36600;BME280;35385;55.668;37.508;2023-02-16T04:30:50;100158.50;;;-2.93;100.00
36600;BME280;35385;55.668;37.508;2023-02-16T04:31:51;100154.19;;;-2.96;100.00
36600;BME280;35385;55.668;37.508;2023-02-16T04:32:53;100156.84;;;-2.99;100.00
36600;BME280;35385;55.668;37.508;2023-02-16T04:33:53;100087.91;;;-3.36;100.00
36600;BME280;35385;55.668;37.508;2023-02-16T04:34:54;100156.78;;;-2.94;100.00
36600;BME280;35385;55.668;37.508;2023-02-16T04:35:55;100108.53;;;-3.21;100.00
36600;BME280;35385;55.668;37.508;2023-02-16T04:36:55;100113.63;;;-3.15;100.00
36600;BME280;35385;55.668;37.508;2023-02-16T04:37:56;100144.59;;;-2.95;100.00
36600;BME280;35385;55.668;37.508;2023-02-16T04:38:56;100084.19;;;-3.25;100.00
36600;BME280;35385;55.668;37.508;2023-02-16T04:39:57;100126.41;;;-3.01;100.00
36600;BME280;35385;55.668;37.508;2023-02-16T04:40:58;100156.47;;;-2.79;100.00
36600;BME280;35385;55.668;37.508;2023-02-16T04:41:58;100083.91;;;-3.11;100.00
36600;BME280;35385;55.668;37.508;2023-02-16T04:42:59;100151.16;;;-2.74;100.00
36600;BME280;35385;55.668;37.508;2023-02-16T04:43:59;100151.25;;;-2.80;100.00
36600;BME280;35385;55.668;37.508;2023-02-16T04:45:00;100151.25;;;-2.80;100.00
36600;BME280;35385;55.668;37.508;2023-02-16T04:46:00;100143.38;;;-2.79;100.00
36600;BME280;35385;55.668;37.508;2023-02-16T04:47:01;100147.66;;;-2.75;100.00
36600;BME280;35385;55.668;37.508;2023-02-16T04:48:01;100143.38;;;-2.79;100.00
36600;BME280;35385;55.668;37.508;2023-02-16T04:49:02;100132.94;;;-2.79;100.00
36600;BME280;35385;55.668;37.508;2023-02-16T04:50:04;100085.59;;;-3.07;100.00
36600;BME280;35385;55.668;37.508;2023-02-16T04:51:04;100142.28;;;-2.69;100.00
36600;BME280;35385;55.668;37.508;2023-02-16T04:52:05;100139.72;;;-2.72;100.00
36600;BME280;35385;55.668;37.508;2023-02-16T04:53:06;100129.69;;;-2.90;100.00
36600;BME280;35385;55.668;37.508;2023-02-16T04:54:07;100139.44;;;-3.00;100.00
36600;BME280;35385;55.668;37.508;2023-02-16T04:55:07;100139.28;;;-2.91;100.00
36600;BME280;35385;55.668;37.508;2023-02-16T04:56:11;100140.06;;;-2.87;100.00
36600;BME280;35385;55.668;37.508;2023-02-16T04:57:11;100152.16;;;-2.81;100.00
36600;BME280;35385;55.668;37.508;2023-02-16T04:58:12;100148.94;;;-2.94;100.00
36600;BME280;35385;55.668;37.508;2023-02-16T04:59:14;100126.34;;;-2.98;100.00
36600;BME280;35385;55.668;37.508;2023-02-16T05:00:15;100147.09;;;-2.89;100.00
36600;BME280;35385;55.668;37.508;2023-02-16T05:01:23;100140.16;;;-2.90;100.00
36600;BME280;35385;55.668;37.508;2023-02-16T05:02:24;100088.31;;;-3.13;100.00
36600;BME280;35385;55.668;37.508;2023-02-16T05:03:24;100144.22;;;-2.77;100.00
36600;BME280;35385;55.668;37.508;2023-02-16T05:04:25;100154.59;;;-2.74;100.00
36600;BME280;35385;55.668;37.508;2023-02-16T05:05:25;100146.91;;;-2.80;100.00
36600;BME280;35385;55.668;37.508;2023-02-16T05:06:26;100153.78;;;-2.76;100.00
36600;BME280;35385;55.668;37.508;2023-02-16T05:07:27;100142.59;;;-2.82;100.00
36600;BME280;35385;55.668;37.508;2023-02-16T05:08:27;100139.94;;;-2.81;100.00
36600;BME280;35385;55.668;37.508;2023-02-16T05:09:28;100149.41;;;-2.75;100.00
36600;BME280;35385;55.668;37.508;2023-02-16T05:10:29;100135.56;;;-2.80;100.00
36600;BME280;35385;55.668;37.508;2023-02-16T05:11:29;100151.16;;;-2.74;100.00
36600;BME280;35385;55.668;37.508;2023-02-16T05:12:48;100157.28;;;-2.77;100.00
36600;BME280;35385;55.668;37.508;2023-02-16T05:14:17;100162.44;;;-2.74;100.00
36600;BME280;35385;55.668;37.508;2023-02-16T05:15:36;100147.72;;;-2.78;100.00
36600;BME280;35385;55.668;37.508;2023-02-16T05:16:37;100153.78;;;-2.76;100.00
36600;BME280;35385;55.668;37.508;2023-02-16T05:17:37;100153.84;;;-2.79;100.00
36600;BME280;35385;55.668;37.508;2023-02-16T05:18:38;100156.38;;;-2.74;100.00
36600;BME280;35385;55.668;37.508;2023-02-16T05:19:40;100130.53;;;-2.90;100.00
36600;BME280;35385;55.668;37.508;2023-02-16T05:20:40;100162.44;;;-2.74;100.00
36600;BME280;35385;55.668;37.508;2023-02-16T05:21:59;100163.13;;;-2.64;100.00
36600;BME280;35385;55.668;37.508;2023-02-16T05:23:01;100156.25;;;-2.70;100.00
36600;BME280;35385;55.668;37.508;2023-02-16T05:24:04;100154.50;;;-2.69;100.00
36600;BME280;35385;55.668;37.508;2023-02-16T05:25:06;100160.59;;;-2.69;100.00
36600;BME280;35385;55.668;37.508;2023-02-16T05:26:06;100116.69;;;-2.95;100.00
36600;BME280;35385;55.668;37.508;2023-02-16T05:27:10;100157.22;;;-2.74;100.00
36600;BME280;35385;55.668;37.508;2023-02-16T05:28:11;100160.66;;;-2.72;100.00
36600;BME280;35385;55.668;37.508;2023-02-16T05:29:11;100158.84;;;-2.68;100.00
36600;BME280;35385;55.668;37.508;2023-02-16T05:30:13;100177.16;;;-2.68;100.00
36600;BME280;35385;55.668;37.508;2023-02-16T05:31:13;100158.81;;;-2.67;100.00
36600;BME280;35385;55.668;37.508;2023-02-16T05:32:14;100159.78;;;-2.71;100.00
36600;BME280;35385;55.668;37.508;2023-02-16T05:33:15;100087.41;;;-3.12;100.00
36600;BME280;35385;55.668;37.508;2023-02-16T05:34:15;100119.38;;;-2.98;100.00
36600;BME280;35385;55.668;37.508;2023-02-16T05:35:16;100147.72;;;-2.78;100.00
36600;BME280;35385;55.668;37.508;2023-02-16T05:36:17;100163.41;;;-2.78;100.00
36600;BME280;35385;55.668;37.508;2023-02-16T05:37:17;100069.47;;;-3.29;100.00
36600;BME280;35385;55.668;37.508;2023-02-16T05:38:18;100161.44;;;-2.67;100.00
36600;BME280;35385;55.668;37.508;2023-02-16T05:39:19;100147.59;;;-2.72;100.00
36600;BME280;35385;55.668;37.508;2023-02-16T05:40:19;100163.03;;;-2.60;100.00
36600;BME280;35385;55.668;37.508;2023-02-16T05:41:20;100148.47;;;-2.73;100.00
36600;BME280;35385;55.668;37.508;2023-02-16T05:42:23;100086.69;;;-3.18;100.00
36600;BME280;35385;55.668;37.508;2023-02-16T05:43:24;100147.91;;;-2.87;100.00
36600;BME280;35385;55.668;37.508;2023-02-16T05:44:24;100162.94;;;-2.98;100.00
36600;BME280;35385;55.668;37.508;2023-02-16T05:45:25;100132.63;;;-3.07;100.00
36600;BME280;35385;55.668;37.508;2023-02-16T05:46:27;100106.75;;;-3.19;100.00
36600;BME280;35385;55.668;37.508;2023-02-16T05:47:28;100160.75;;;-2.75;100.00
36600;BME280;35385;55.668;37.508;2023-02-16T05:48:28;100157.22;;;-2.74;100.00
36600;BME280;35385;55.668;37.508;2023-02-16T05:49:29;100154.59;;;-2.74;100.00
36600;BME280;35385;55.668;37.508;2023-02-16T05:50:29;100109.00;;;-3.02;100.00
36600;BME280;35385;55.668;37.508;2023-02-16T05:51:30;100139.25;;;-2.89;100.00
36600;BME280;35385;55.668;37.508;2023-02-16T05:52:31;100159.34;;;-2.91;100.00
36600;BME280;35385;55.668;37.508;2023-02-16T05:53:31;100161.94;;;-2.91;100.00
36600;BME280;35385;55.668;37.508;2023-02-16T05:54:32;100143.69;;;-2.94;100.00
36600;BME280;35385;55.668;37.508;2023-02-16T05:55:33;100147.16;;;-2.92;100.00